sensor_id;sensor_type;location;lat;lon;timestamp;temperature;humidity
8340;DHT22;4207;49.314;7.162;2022-09-09T00:02:19;14.00;99.90
8340;DHT22;4207;49.314;7.162;2022-09-09T00:04:57;14.30;99.90
8340;DHT22;4207;49.314;7.162;2022-09-09T00:07:38;14.10;99.90
8340;DHT22;4207;49.314;7.162;2022-09-09T00:10:16;14.10;99.90
8340;DHT22;4207;49.314;7.162;2022-09-09T00:12:51;14.40;99.90
8340;DHT22;4207;49.314;7.162;2022-09-09T00:15:25;14.20;99.90
8340;DHT22;4207;49.314;7.162;2022-09-09T00:17:57;14.50;99.90
8340;DHT22;4207;49.314;7.162;2022-09-09T00:20:32;14.50;99.90
8340;DHT22;4207;49.314;7.162;2022-09-09T00:23:10;14.30;99.90
8340;DHT22;4207;49.314;7.162;2022-09-09T00:25:44;14.80;99.90
8340;DHT22;4207;49.314;7.162;2022-09-09T00:28:22;14.80;99.90
8340;DHT22;4207;49.314;7.162;2022-09-09T00:30:50;14.50;99.90
8340;DHT22;4207;49.314;7.162;2022-09-09T00:33:20;14.70;99.90
8340;DHT22;4207;49.314;7.162;2022-09-09T00:35:52;14.70;99.90
8340;DHT22;4207;49.314;7.162;2022-09-09T00:38:26;14.90;99.90
8340;DHT22;4207;49.314;7.162;2022-09-09T00:41:00;14.60;99.90
8340;DHT22;4207;49.314;7.162;2022-09-09T00:43:32;14.80;99.90
8340;DHT22;4207;49.314;7.162;2022-09-09T00:46:24;15.10;99.90
8340;DHT22;4207;49.314;7.162;2022-09-09T00:49:02;14.80;99.90
8340;DHT22;4207;49.314;7.162;2022-09-09T00:51:41;14.80;99.90
8340;DHT22;4207;49.314;7.162;2022-09-09T00:54:21;14.90;99.90
8340;DHT22;4207;49.314;7.162;2022-09-09T00:56:58;14.70;99.90
8340;DHT22;4207;49.314;7.162;2022-09-09T00:59:34;14.80;99.90
8340;DHT22;4207;49.314;7.162;2022-09-09T01:02:14;15.00;99.90
8340;DHT22;4207;49.314;7.162;2022-09-09T01:04:43;14.70;99.90
8340;DHT22;4207;49.314;7.162;2022-09-09T01:07:17;14.60;99.90
8340;DHT22;4207;49.314;7.162;2022-09-09T01:09:52;14.60;99.90
8340;DHT22;4207;49.314;7.162;2022-09-09T01:12:29;14.80;99.90
8340;DHT22;4207;49.314;7.162;2022-09-09T01:15:04;14.40;99.90
8340;DHT22;4207;49.314;7.162;2022-09-09T01:17:58;14.60;99.90
8340;DHT22;4207;49.314;7.162;2022-09-09T01:20:33;14.40;99.90
8340;DHT22;4207;49.314;7.162;2022-09-09T01:23:30;14.50;99.90
8340;DHT22;4207;49.314;7.162;2022-09-09T01:26:30;14.30;99.90
8340;DHT22;4207;49.314;7.162;2022-09-09T01:29:08;14.20;99.90
8340;DHT22;4207;49.314;7.162;2022-09-09T01:31:40;14.30;99.90
8340;DHT22;4207;49.314;7.162;2022-09-09T01:34:11;14.20;99.90
8340;DHT22;4207;49.314;7.162;2022-09-09T01:36:43;14.20;99.90
8340;DHT22;4207;49.314;7.162;2022-09-09T01:39:12;14.20;99.90
8340;DHT22;4207;49.314;7.162;2022-09-09T01:41:44;14.40;99.90
8340;DHT22;4207;49.314;7.162;2022-09-09T01:44:15;14.30;99.90
8340;DHT22;4207;49.314;7.162;2022-09-09T01:46:45;14.40;99.90
8340;DHT22;4207;49.314;7.162;2022-09-09T01:49:17;14.40;99.90
8340;DHT22;4207;49.314;7.162;2022-09-09T01:51:49;14.20;99.90
8340;DHT22;4207;49.314;7.162;2022-09-09T01:54:23;14.30;99.90
8340;DHT22;4207;49.314;7.162;2022-09-09T01:57:06;14.20;99.90
8340;DHT22;4207;49.314;7.162;2022-09-09T01:59:48;14.30;99.90
8340;DHT22;4207;49.314;7.162;2022-09-09T02:02:18;14.20;99.90
8340;DHT22;4207;49.314;7.162;2022-09-09T02:05:14;14.30;99.90
8340;DHT22;4207;49.314;7.162;2022-09-09T02:07:47;14.40;99.90
8340;DHT22;4207;49.314;7.162;2022-09-09T02:10:34;14.50;99.90
8340;DHT22;4207;49.314;7.162;2022-09-09T02:13:14;14.60;99.90
8340;DHT22;4207;49.314;7.162;2022-09-09T02:15:48;14.60;99.90
8340;DHT22;4207;49.314;7.162;2022-09-09T02:18:24;14.80;99.90
8340;DHT22;4207;49.314;7.162;2022-09-09T02:20:54;14.70;99.90
8340;DHT22;4207;49.314;7.162;2022-09-09T02:23:23;14.60;99.90
8340;DHT22;4207;49.314;7.162;2022-09-09T02:25:55;14.60;99.90
8340;DHT22;4207;49.314;7.162;2022-09-09T02:28:29;14.60;99.90
8340;DHT22;4207;49.314;7.162;2022-09-09T02:30:57;15.70;99.90
8340;DHT22;4207;49.314;7.162;2022-09-09T02:33:36;14.40;99.90
8340;DHT22;4207;49.314;7.162;2022-09-09T02:36:07;14.40;99.90
8340;DHT22;4207;49.314;7.162;2022-09-09T02:38:41;14.20;99.90
8340;DHT22;4207;49.314;7.162;2022-09-09T02:41:13;14.50;99.90
8340;DHT22;4207;49.314;7.162;2022-09-09T02:43:43;14.30;99.90
8340;DHT22;4207;49.314;7.162;2022-09-09T02:46:32;14.10;99.90
8340;DHT22;4207;49.314;7.162;2022-09-09T02:49:08;14.00;99.90
8340;DHT22;4207;49.314;7.162;2022-09-09T02:51:46;13.90;99.90
8340;DHT22;4207;49.314;7.162;2022-09-09T02:54:22;13.90;99.90
8340;DHT22;4207;49.314;7.162;2022-09-09T02:56:54;13.90;99.90
8340;DHT22;4207;49.314;7.162;2022-09-09T02:59:32;13.90;99.90
8340;DHT22;4207;49.314;7.162;2022-09-09T03:02:00;13.80;99.90
8340;DHT22;4207;49.314;7.162;2022-09-09T03:04:29;13.80;99.90
8340;DHT22;4207;49.314;7.162;2022-09-09T03:06:58;13.70;99.90
8340;DHT22;4207;49.314;7.162;2022-09-09T03:09:26;13.90;99.90
8340;DHT22;4207;49.314;7.162;2022-09-09T03:14:25;13.90;99.90
8340;DHT22;4207;49.314;7.162;2022-09-09T03:16:56;14.00;99.90
8340;DHT22;4207;49.314;7.162;2022-09-09T03:19:29;14.10;99.90
8340;DHT22;4207;49.314;7.162;2022-09-09T03:21:58;13.90;99.90
8340;DHT22;4207;49.314;7.162;2022-09-09T03:24:29;13.80;99.90
8340;DHT22;4207;49.314;7.162;2022-09-09T03:26:57;13.90;99.90
8340;DHT22;4207;49.314;7.162;2022-09-09T03:29:25;13.80;99.90
8340;DHT22;4207;49.314;7.162;2022-09-09T03:31:57;14.10;99.90
8340;DHT22;4207;49.314;7.162;2022-09-09T03:34:27;13.70;99.90
8340;DHT22;4207;49.314;7.162;2022-09-09T03:36:57;13.80;99.90
8340;DHT22;4207;49.314;7.162;2022-09-09T03:39:26;13.90;99.90
8340;DHT22;4207;49.314;7.162;2022-09-09T03:41:55;13.60;99.90
8340;DHT22;4207;49.314;7.162;2022-09-09T03:44:24;13.60;99.90
8340;DHT22;4207;49.314;7.162;2022-09-09T03:46:54;13.60;99.90
8340;DHT22;4207;49.314;7.162;2022-09-09T03:49:23;13.60;99.90
8340;DHT22;4207;49.314;7.162;2022-09-09T03:51:54;13.60;99.90
8340;DHT22;4207;49.314;7.162;2022-09-09T03:54:23;13.70;99.90
8340;DHT22;4207;49.314;7.162;2022-09-09T03:56:51;13.70;99.90
8340;DHT22;4207;49.314;7.162;2022-09-09T03:59:21;13.60;99.90
8340;DHT22;4207;49.314;7.162;2022-09-09T04:01:49;13.70;99.90
8340;DHT22;4207;49.314;7.162;2022-09-09T04:04:17;13.70;99.90
8340;DHT22;4207;49.314;7.162;2022-09-09T04:06:47;13.70;99.90
8340;DHT22;4207;49.314;7.162;2022-09-09T04:09:17;13.80;99.90
8340;DHT22;4207;49.314;7.162;2022-09-09T04:11:47;13.90;99.90
8340;DHT22;4207;49.314;7.162;2022-09-09T04:14:16;14.00;99.90
8340;DHT22;4207;49.314;7.162;2022-09-09T04:16:44;13.90;99.90
8340;DHT22;4207;49.314;7.162;2022-09-09T04:19:12;14.00;99.90
8340;DHT22;4207;49.314;7.162;2022-09-09T04:21:42;14.00;99.90
8340;DHT22;4207;49.314;7.162;2022-09-09T04:24:12;14.00;99.90
8340;DHT22;4207;49.314;7.162;2022-09-09T04:26:43;13.00;99.90
8340;DHT22;4207;49.314;7.162;2022-09-09T04:29:12;14.20;99.90
8340;DHT22;4207;49.314;7.162;2022-09-09T04:34:09;14.00;99.90
8340;DHT22;4207;49.314;7.162;2022-09-09T04:36:38;14.10;99.90
8340;DHT22;4207;49.314;7.162;2022-09-09T04:39:09;14.10;99.90
8340;DHT22;4207;49.314;7.162;2022-09-09T04:41:39;14.10;99.90
8340;DHT22;4207;49.314;7.162;2022-09-09T04:44:09;14.10;99.90
8340;DHT22;4207;49.314;7.162;2022-09-09T04:46:38;14.20;99.90
8340;DHT22;4207;49.314;7.162;2022-09-09T04:49:07;14.00;99.90
8340;DHT22;4207;49.314;7.162;2022-09-09T04:51:41;14.00;99.90
8340;DHT22;4207;49.314;7.162;2022-09-09T04:54:09;14.30;99.90
8340;DHT22;4207;49.314;7.162;2022-09-09T04:56:41;15.10;99.90
8340;DHT22;4207;49.314;7.162;2022-09-09T04:59:10;13.80;99.90
8340;DHT22;4207;49.314;7.162;2022-09-09T05:01:44;14.20;99.90
8340;DHT22;4207;49.314;7.162;2022-09-09T05:04:12;14.20;99.90
8340;DHT22;4207;49.314;7.162;2022-09-09T05:06:41;14.30;99.90
8340;DHT22;4207;49.314;7.162;2022-09-09T05:09:11;14.30;99.90
8340;DHT22;4207;49.314;7.162;2022-09-09T05:11:40;14.30;99.90
8340;DHT22;4207;49.314;7.162;2022-09-09T05:14:15;14.30;99.90
8340;DHT22;4207;49.314;7.162;2022-09-09T05:16:44;14.50;99.90
8340;DHT22;4207;49.314;7.162;2022-09-09T05:19:13;14.40;99.90
8340;DHT22;4207;49.314;7.162;2022-09-09T05:21:47;14.40;99.90
8340;DHT22;4207;49.314;7.162;2022-09-09T05:24:17;14.40;99.90
8340;DHT22;4207;49.314;7.162;2022-09-09T05:26:52;14.30;99.90
8340;DHT22;4207;49.314;7.162;2022-09-09T05:29:20;14.40;99.90
8340;DHT22;4207;49.314;7.162;2022-09-09T05:31:48;14.40;99.90
8340;DHT22;4207;49.314;7.162;2022-09-09T05:34:19;14.80;99.90
8340;DHT22;4207;49.314;7.162;2022-09-09T05:36:49;14.50;99.90
8340;DHT22;4207;49.314;7.162;2022-09-09T05:39:20;14.50;99.90
8340;DHT22;4207;49.314;7.162;2022-09-09T05:41:50;14.50;99.90
8340;DHT22;4207;49.314;7.162;2022-09-09T05:59:22;14.90;99.90
8340;DHT22;4207;49.314;7.162;2022-09-09T06:01:56;15.10;99.90
8340;DHT22;4207;49.314;7.162;2022-09-09T06:04:30;15.00;99.90
8340;DHT22;4207;49.314;7.162;2022-09-09T06:07:00;15.10;99.90
8340;DHT22;4207;49.314;7.162;2022-09-09T06:09:28;15.10;99.90
8340;DHT22;4207;49.314;7.162;2022-09-09T06:11:58;15.20;99.90
8340;DHT22;4207;49.314;7.162;2022-09-09T16:19:14;14.30;99.90
8340;DHT22;4207;49.314;7.162;2022-09-09T16:21:44;14.30;99.90
8340;DHT22;4207;49.314;7.162;2022-09-09T16:24:15;14.20;99.90
8340;DHT22;4207;49.314;7.162;2022-09-09T16:26:49;14.10;99.90
8340;DHT22;4207;49.314;7.162;2022-09-09T16:29:20;14.10;99.90
8340;DHT22;4207;49.314;7.162;2022-09-09T16:31:51;14.00;99.90
8340;DHT22;4207;49.314;7.162;2022-09-09T16:34:30;14.00;99.90
8340;DHT22;4207;49.314;7.162;2022-09-09T16:36:58;14.00;99.90
8340;DHT22;4207;49.314;7.162;2022-09-09T16:51:57;14.30;99.90
8340;DHT22;4207;49.314;7.162;2022-09-09T16:54:26;14.40;99.90
8340;DHT22;4207;49.314;7.162;2022-09-09T16:56:55;14.40;99.90
8340;DHT22;4207;49.314;7.162;2022-09-09T16:59:23;14.40;99.90
8340;DHT22;4207;49.314;7.162;2022-09-09T17:01:51;14.60;99.90
8340;DHT22;4207;49.314;7.162;2022-09-09T17:04:23;14.70;99.90
8340;DHT22;4207;49.314;7.162;2022-09-09T17:06:53;14.70;99.90
8340;DHT22;4207;49.314;7.162;2022-09-09T17:09:23;14.80;99.90
8340;DHT22;4207;49.314;7.162;2022-09-09T17:11:55;14.80;99.90
8340;DHT22;4207;49.314;7.162;2022-09-09T17:14:23;14.80;99.90
8340;DHT22;4207;49.314;7.162;2022-09-09T17:16:51;14.80;99.90
8340;DHT22;4207;49.314;7.162;2022-09-09T17:19:20;14.80;99.90
8340;DHT22;4207;49.314;7.162;2022-09-09T17:21:48;14.50;99.90
8340;DHT22;4207;49.314;7.162;2022-09-09T17:24:36;14.70;99.90
8340;DHT22;4207;49.314;7.162;2022-09-09T17:27:09;14.60;99.90
8340;DHT22;4207;49.314;7.162;2022-09-09T17:29:39;14.80;99.90
8340;DHT22;4207;49.314;7.162;2022-09-09T17:57:00;14.60;99.90
8340;DHT22;4207;49.314;7.162;2022-09-09T17:59:28;14.60;99.90
8340;DHT22;4207;49.314;7.162;2022-09-09T18:01:57;14.60;99.90
8340;DHT22;4207;49.314;7.162;2022-09-09T18:04:26;14.60;99.90
8340;DHT22;4207;49.314;7.162;2022-09-09T18:06:54;14.60;99.90
8340;DHT22;4207;49.314;7.162;2022-09-09T18:09:24;14.60;99.90
8340;DHT22;4207;49.314;7.162;2022-09-09T18:11:54;14.60;99.90
8340;DHT22;4207;49.314;7.162;2022-09-09T18:14:25;14.60;99.90
8340;DHT22;4207;49.314;7.162;2022-09-09T19:14:16;14.80;99.90
8340;DHT22;4207;49.314;7.162;2022-09-09T19:16:46;14.80;99.90
8340;DHT22;4207;49.314;7.162;2022-09-09T19:19:15;14.90;99.90
8340;DHT22;4207;49.314;7.162;2022-09-09T19:21:44;14.80;99.90
8340;DHT22;4207;49.314;7.162;2022-09-09T19:24:14;14.80;99.90
8340;DHT22;4207;49.314;7.162;2022-09-09T19:26:44;14.80;99.90
8340;DHT22;4207;49.314;7.162;2022-09-09T19:29:15;14.80;99.90
8340;DHT22;4207;49.314;7.162;2022-09-09T19:31:43;14.80;99.90
8340;DHT22;4207;49.314;7.162;2022-09-09T19:34:33;14.80;99.90
8340;DHT22;4207;49.314;7.162;2022-09-09T19:37:03;14.60;99.90
8340;DHT22;4207;49.314;7.162;2022-09-09T19:39:31;14.60;99.90
8340;DHT22;4207;49.314;7.162;2022-09-09T19:42:00;14.50;99.90
8340;DHT22;4207;49.314;7.162;2022-09-09T19:44:28;14.40;99.90
8340;DHT22;4207;49.314;7.162;2022-09-09T19:46:56;14.30;99.90
8340;DHT22;4207;49.314;7.162;2022-09-09T19:49:26;14.20;99.90
8340;DHT22;4207;49.314;7.162;2022-09-09T19:51:56;14.20;99.90
8340;DHT22;4207;49.314;7.162;2022-09-09T19:54:24;14.20;99.90
8340;DHT22;4207;49.314;7.162;2022-09-09T19:56:52;14.20;99.90
8340;DHT22;4207;49.314;7.162;2022-09-09T19:59:20;14.20;99.90
8340;DHT22;4207;49.314;7.162;2022-09-09T20:01:48;14.20;99.90
8340;DHT22;4207;49.314;7.162;2022-09-09T20:04:17;14.30;99.90
8340;DHT22;4207;49.314;7.162;2022-09-09T20:06:45;14.30;99.90
8340;DHT22;4207;49.314;7.162;2022-09-09T20:09:16;14.40;99.90
8340;DHT22;4207;49.314;7.162;2022-09-09T20:11:46;14.30;99.90
8340;DHT22;4207;49.314;7.162;2022-09-09T20:14:15;14.40;99.90
8340;DHT22;4207;49.314;7.162;2022-09-09T20:16:43;14.40;99.90
8340;DHT22;4207;49.314;7.162;2022-09-09T20:19:13;14.80;99.90
8340;DHT22;4207;49.314;7.162;2022-09-09T20:21:44;14.50;99.90
8340;DHT22;4207;49.314;7.162;2022-09-09T20:24:16;14.50;99.90
8340;DHT22;4207;49.314;7.162;2022-09-09T20:26:45;14.50;99.90
8340;DHT22;4207;49.314;7.162;2022-09-09T20:29:16;14.50;99.90
8340;DHT22;4207;49.314;7.162;2022-09-09T20:31:45;14.30;99.90
8340;DHT22;4207;49.314;7.162;2022-09-09T20:34:15;14.30;99.90
8340;DHT22;4207;49.314;7.162;2022-09-09T20:36:44;14.20;99.90
8340;DHT22;4207;49.314;7.162;2022-09-09T20:39:15;14.10;99.90
8340;DHT22;4207;49.314;7.162;2022-09-09T20:41:44;14.00;99.90
8340;DHT22;4207;49.314;7.162;2022-09-09T20:44:13;14.00;99.90
8340;DHT22;4207;49.314;7.162;2022-09-09T20:46:43;13.90;99.90
8340;DHT22;4207;49.314;7.162;2022-09-09T20:49:15;13.90;99.90
8340;DHT22;4207;49.314;7.162;2022-09-09T20:51:43;13.90;99.90
8340;DHT22;4207;49.314;7.162;2022-09-09T20:54:13;13.90;99.90
8340;DHT22;4207;49.314;7.162;2022-09-09T20:56:44;13.90;99.90
8340;DHT22;4207;49.314;7.162;2022-09-09T20:59:13;13.80;99.90
8340;DHT22;4207;49.314;7.162;2022-09-09T21:01:42;13.80;99.90
8340;DHT22;4207;49.314;7.162;2022-09-09T21:04:13;13.80;99.90
8340;DHT22;4207;49.314;7.162;2022-09-09T21:06:42;13.80;99.90
8340;DHT22;4207;49.314;7.162;2022-09-09T21:09:10;13.70;99.90
8340;DHT22;4207;49.314;7.162;2022-09-09T21:11:38;13.70;99.90
8340;DHT22;4207;49.314;7.162;2022-09-09T21:14:09;13.70;99.90
8340;DHT22;4207;49.314;7.162;2022-09-09T21:16:37;13.70;99.90
8340;DHT22;4207;49.314;7.162;2022-09-09T21:19:04;13.70;99.90
8340;DHT22;4207;49.314;7.162;2022-09-09T21:21:32;13.70;99.90
8340;DHT22;4207;49.314;7.162;2022-09-09T21:24:02;13.70;99.90
8340;DHT22;4207;49.314;7.162;2022-09-09T21:26:30;13.70;99.90
8340;DHT22;4207;49.314;7.162;2022-09-09T21:28:58;13.70;99.90
8340;DHT22;4207;49.314;7.162;2022-09-09T21:31:27;13.70;99.90
8340;DHT22;4207;49.314;7.162;2022-09-09T21:33:55;13.70;99.90
8340;DHT22;4207;49.314;7.162;2022-09-09T21:36:24;13.60;99.90
8340;DHT22;4207;49.314;7.162;2022-09-09T21:38:54;13.60;99.90
8340;DHT22;4207;49.314;7.162;2022-09-09T21:41:22;13.60;99.90
8340;DHT22;4207;49.314;7.162;2022-09-09T21:43:51;13.60;99.90
8340;DHT22;4207;49.314;7.162;2022-09-09T21:46:20;13.50;99.90
8340;DHT22;4207;49.314;7.162;2022-09-09T21:48:50;13.60;99.90
8340;DHT22;4207;49.314;7.162;2022-09-09T21:51:18;13.50;99.90
8340;DHT22;4207;49.314;7.162;2022-09-09T21:53:46;13.50;99.90
8340;DHT22;4207;49.314;7.162;2022-09-09T21:56:17;13.40;99.90
8340;DHT22;4207;49.314;7.162;2022-09-09T21:58:45;13.40;99.90
8340;DHT22;4207;49.314;7.162;2022-09-09T22:01:15;13.40;99.90
8340;DHT22;4207;49.314;7.162;2022-09-09T22:03:44;13.40;99.90
8340;DHT22;4207;49.314;7.162;2022-09-09T22:06:15;13.40;99.90
8340;DHT22;4207;49.314;7.162;2022-09-09T22:08:43;13.10;99.90
8340;DHT22;4207;49.314;7.162;2022-09-09T22:11:14;13.40;99.90
8340;DHT22;4207;49.314;7.162;2022-09-09T22:13:42;13.40;99.90
8340;DHT22;4207;49.314;7.162;2022-09-09T22:16:14;13.40;99.90
8340;DHT22;4207;49.314;7.162;2022-09-09T22:18:43;13.30;99.90
8340;DHT22;4207;49.314;7.162;2022-09-09T22:21:13;13.30;99.90
8340;DHT22;4207;49.314;7.162;2022-09-09T22:23:42;13.30;99.90
8340;DHT22;4207;49.314;7.162;2022-09-09T22:26:10;13.30;99.90
8340;DHT22;4207;49.314;7.162;2022-09-09T22:28:38;13.20;99.90
8340;DHT22;4207;49.314;7.162;2022-09-09T22:31:06;13.20;99.90
8340;DHT22;4207;49.314;7.162;2022-09-09T22:33:34;13.20;99.90
8340;DHT22;4207;49.314;7.162;2022-09-09T22:36:03;13.10;99.90
8340;DHT22;4207;49.314;7.162;2022-09-09T22:38:32;13.10;99.90
8340;DHT22;4207;49.314;7.162;2022-09-09T22:41:01;13.00;99.90
8340;DHT22;4207;49.314;7.162;2022-09-09T22:43:30;13.00;99.90
8340;DHT22;4207;49.314;7.162;2022-09-09T22:45:59;13.00;99.90
8340;DHT22;4207;49.314;7.162;2022-09-09T22:48:31;13.00;99.90
8340;DHT22;4207;49.314;7.162;2022-09-09T22:51:02;12.90;99.90
8340;DHT22;4207;49.314;7.162;2022-09-09T22:53:31;12.90;99.90
8340;DHT22;4207;49.314;7.162;2022-09-09T22:56:01;12.90;99.90
8340;DHT22;4207;49.314;7.162;2022-09-09T22:58:31;12.90;99.90
8340;DHT22;4207;49.314;7.162;2022-09-09T23:00:59;12.80;99.90
8340;DHT22;4207;49.314;7.162;2022-09-09T23:03:29;12.80;99.90
8340;DHT22;4207;49.314;7.162;2022-09-09T23:06:00;12.90;99.90
8340;DHT22;4207;49.314;7.162;2022-09-09T23:08:34;12.90;99.90
8340;DHT22;4207;49.314;7.162;2022-09-09T23:11:04;12.90;99.90
8340;DHT22;4207;49.314;7.162;2022-09-09T23:13:35;12.80;99.90
8340;DHT22;4207;49.314;7.162;2022-09-09T23:16:11;12.90;99.90
8340;DHT22;4207;49.314;7.162;2022-09-09T23:18:40;12.80;99.90
8340;DHT22;4207;49.314;7.162;2022-09-09T23:21:10;12.80;99.90
8340;DHT22;4207;49.314;7.162;2022-09-09T23:23:40;12.80;99.90
8340;DHT22;4207;49.314;7.162;2022-09-09T23:26:11;12.80;99.90
8340;DHT22;4207;49.314;7.162;2022-09-09T23:28:39;12.70;99.90
8340;DHT22;4207;49.314;7.162;2022-09-09T23:31:11;12.80;99.90
8340;DHT22;4207;49.314;7.162;2022-09-09T23:33:40;12.70;99.90
8340;DHT22;4207;49.314;7.162;2022-09-09T23:36:12;12.80;99.90
8340;DHT22;4207;49.314;7.162;2022-09-09T23:38:44;12.70;99.90
8340;DHT22;4207;49.314;7.162;2022-09-09T23:41:14;12.80;99.90
8340;DHT22;4207;49.314;7.162;2022-09-09T23:43:44;12.70;99.90
8340;DHT22;4207;49.314;7.162;2022-09-09T23:46:14;12.70;99.90
8340;DHT22;4207;49.314;7.162;2022-09-09T23:48:43;12.70;99.90
8340;DHT22;4207;49.314;7.162;2022-09-09T23:51:12;12.60;99.90
8340;DHT22;4207;49.314;7.162;2022-09-09T23:53:45;12.60;99.90
8340;DHT22;4207;49.314;7.162;2022-09-09T23:56:17;12.60;99.90
8340;DHT22;4207;49.314;7.162;2022-09-09T23:58:46;12.60;99.90
